Airfield :
LOGIN :

Register | Disclaimer

   EN    FR    IT 

 










Legend :    VFR   Marginal VFR   IFR   Intensive IFR   Very Intensive IFR
Visi :
Ceiling :
>= 8 km
>= 3000ft
5 to 8 km
1000 to 3000 ft
1500m to 5 km
500 to 1000 ft
800 to 1500m
200 to 500 ft
< 800m
< 200 ft
Symbols :   Thunderstorms  Fog  Heavy snow  Heavy precipitations  Wind > 20 kt
SIGMETs :     Misc.  Thunderstorms  Icing  Turbulence  Mountain Waves  Volcanic Ashes






- Airport Elevation : 87 ft
- IATA code : AHO


LIEA - Fertilia Alghero

CURRENT METAR :
  • 292350Z VRB01KT CAVOK 16/15 Q1013

EXPIRED METARs :
  • 292320Z 17001KT CAVOK 17/15 Q1013
  • 292250Z VRB02KT CAVOK 17/15 Q1013
  • 292220Z 21003KT 190V250 CAVOK 17/15 Q1013
  • 292150Z 19002KT CAVOK 17/15 Q1014
  • 292120Z VRB01KT CAVOK 17/16 Q1014
  • 292050Z VRB02KT CAVOK 18/16 Q1014
  • 292020Z VRB01KT CAVOK 18/16 Q1014
  • 291950Z 29003KT 260V340 9999 FEW030 19/16 Q1014
  • 291920Z 29003KT 270V340 9999 FEW030 19/16 Q1014

TAF TAF LIEA
Valid from the 30 at 00:00 until the 31 at 00:00 UTC


292300Z 3000/3024 VRB05KT CAVOK
BECMG 3008/3010 29015KT



MET'MAP, your aeronautical weather chart ! - Copyright ORBIFLY December 2007 - Disclaimer

ORBIFLY MET'MAP TEAM :

Programming & Development : Alexandra Zaïnal
Original concept : Baudouin d'Aumeries
Technical & hardware support : Manuel Goepfert
Assistance : Marc-Olivier Méhu




SOURCES & CREDITS :

   NOAA